Calypso — IYQT — position and weather

sailwx.info

Track history (hours):
 
Tides and Currents Weather Stations Pressure Air Temp Water Temp Dewpoint Dewpoint Depression Visibility Wind Speed Wind Dir Waves Ship Positions

Calypso

Last reported at 2017-Aug-21 07:53 UTC. Time now 2017-Aug-21 08:23 UTC.
Position N 38°32' E 014°58'.

Length 31 m; draft 4 m.

Type: High speed craft. MMSI: 247143200.

Date/timePositionNaut miles runAvg speedWind from/ knotsBaromVisibWave heightAir tempDewpointWater temp
2017-Aug-21 07:53N 38°32' E 014°58'614.7
2017-Aug-21 07:28N 38°26' E 014°59'716.2
2017-Aug-21 07:00N 38°22' E 015°07'1021.0
2017-Aug-21 06:30N 38°13' E 015°14'0 0.4
2017-Aug-21 06:00N 38°13' E 015°15'1426.9
2017-Aug-21 05:30N 38°23' E 015°03'711.0
2017-Aug-21 04:54N 38°28' E 014°58'2 0.1
2017-Aug-20 18:02N 38°30' E 014°59'134.8
2017-Aug-20 18:01N 38°29' E 014°59'3 5.7
2017-Aug-20 17:30N 38°26' E 014°58'3 1.1
2017-Aug-20 14:32N 38°29' E 014°59'129.9
2017-Aug-20 14:30N 38°28' E 014°59'4 6.3
2017-Aug-20 13:48N 38°24' E 015°01'1034.4
2017-Aug-20 13:30N 38°19' E 015°11'612.3
2017-Aug-20 13:01N 38°13' E 015°14'0 0.4
2017-Aug-20 12:30N 38°13' E 015°15'3 6.8
2017-Aug-20 12:01N 38°16' E 015°16'1625.3
2017-Aug-20 11:22N 38°25' E 014°58'3 9.0
2017-Aug-20 10:59N 38°28' E 014°58'813.8
2017-Aug-20 10:24N 38°33' E 014°50'1 0.6
2017-Aug-20 08:26N 38°33' E 014°48'4 8.4
2017-Aug-20 07:56N 38°33' E 014°54'714.3
2017-Aug-20 07:27N 38°27' E 014°59'716.1
2017-Aug-20 07:01N 38°23' E 015°05'1223.7
2017-Aug-20 06:30N 38°13' E 015°14'0 0.1
2017-Aug-20 06:01N 38°13' E 015°15'1325.6
2017-Aug-20 05:31N 38°23' E 015°04'712.3
2017-Aug-20 04:55N 38°28' E 014°58'8 8.2
2017-Aug-20 03:58N 38°33' E 014°50'0 0.0
2017-Aug-19 18:50N 38°33' E 014°50'310.3
2017-Aug-19 18:30N 38°33' E 014°54'611.3
2017-Aug-19 17:58N 38°27' E 014°55'7 3.1
2017-Aug-19 15:39N 38°33' E 014°50'410.8
2017-Aug-19 15:18N 38°33' E 014°54'613.4
2017-Aug-19 14:52N 38°28' E 014°58'1922.9
2017-Aug-19 14:01N 38°15' E 015°17'3 5.1
2017-Aug-19 13:30N 38°13' E 015°15'0 0.0
2017-Aug-19 13:00N 38°13' E 015°15'0 0.4
2017-Aug-19 12:30N 38°13' E 015°14'1020.3
2017-Aug-19 12:01N 38°21' E 015°06'1020.1
2017-Aug-19 11:30N 38°28' E 014°58'6 8.2
2017-Aug-19 10:48N 38°33' E 014°53'619.5
2017-Aug-19 10:30N 38°34' E 014°45'5 2.8
2017-Aug-19 08:51N 38°34' E 014°39'823.6
2017-Aug-19 08:31N 38°33' E 014°50'816.3
2017-Aug-19 08:00N 38°28' E 014°59'4 6.6
2017-Aug-19 07:26N 38°25' E 014°59'1434.4
2017-Aug-19 07:01N 38°18' E 015°15'4 8.9
2017-Aug-19 06:30N 38°13' E 015°15'0 0.1
2017-Aug-19 06:01N 38°13' E 015°15'1224.8
2017-Aug-19 05:30N 38°22' E 015°04'815.5
2017-Aug-19 05:00N 38°28' E 014°57'610.1
2017-Aug-19 04:26N 38°32' E 014°52'2 0.2
2017-Aug-18 18:46N 38°33' E 014°50'3 8.4
2017-Aug-18 18:25N 38°33' E 014°53'6 6.7
2017-Aug-18 17:30N 38°29' E 014°59'1122.9
2017-Aug-18 17:00N 38°33' E 014°46'1121.0
2017-Aug-18 16:30N 38°35' E 014°32'1 2.3
2017-Aug-18 15:53N 38°35' E 014°30'512.9
2017-Aug-18 15:30N 38°34' E 014°37'1224.7
2017-Aug-18 14:59N 38°32' E 014°52'8 8.1
2017-Aug-18 13:56N 38°25' E 014°58'1534.3
2017-Aug-18 13:30N 38°17' E 015°15'4 8.6
2017-Aug-18 13:00N 38°13' E 015°15'0 0.0
2017-Aug-18 12:30N 38°13' E 015°15'5 9.1
2017-Aug-18 12:01N 38°18' E 015°14'1424.6
2017-Aug-18 11:25N 38°25' E 014°58'410.5
2017-Aug-18 11:00N 38°29' E 014°59'816.1
2017-Aug-18 10:30N 38°33' E 014°50'10 5.6
2017-Aug-18 08:47N 38°35' E 014°38'1034.6
2017-Aug-18 08:31N 38°33' E 014°50'510.7
2017-Aug-18 08:00N 38°32' E 014°56'711.0
2017-Aug-18 07:20N 38°25' E 014°58'1134.2
2017-Aug-18 07:01N 38°20' E 015°11'714.4
2017-Aug-18 06:30N 38°13' E 015°14'0 0.0
2017-Aug-18 06:00N 38°13' E 015°15'1224.2
2017-Aug-18 05:30N 38°22' E 015°04'812.8
2017-Aug-18 04:54N 38°29' E 014°59'715.9
2017-Aug-18 04:29N 38°33' E 014°53'2 0.2
2017-Aug-17 18:57N 38°33' E 014°50'816.1
2017-Aug-17 18:29N 38°30' E 014°59'711.1
2017-Aug-17 17:54N 38°32' E 014°51'820.6
2017-Aug-17 17:30N 38°34' E 014°40'5 3.0
2017-Aug-17 15:54N 38°33' E 014°46'611.3
2017-Aug-17 15:24N 38°33' E 014°54'612.9
2017-Aug-17 14:58N 38°28' E 014°57'4 8.5
2017-Aug-17 14:30N 38°25' E 014°59'1633.0
2017-Aug-17 14:00N 38°15' E 015°16'2 4.7
2017-Aug-17 13:30N 38°13' E 015°15'0 0.4
2017-Aug-17 13:00N 38°13' E 015°15'1428.7
2017-Aug-17 12:30N 38°23' E 015°02'5 9.4
2017-Aug-17 12:00N 38°27' E 014°58'8 9.8
2017-Aug-17 11:13N 38°33' E 014°53'413.3
2017-Aug-17 10:54N 38°33' E 014°47'1018.7
2017-Aug-17 10:22N 38°35' E 014°35'5 4.0
2017-Aug-17 09:15N 38°34' E 014°40'832.1
2017-Aug-17 09:01N 38°33' E 014°50'612.0
2017-Aug-17 08:30N 38°32' E 014°58'3 5.8
2017-Aug-17 07:58N 38°29' E 014°57'2 5.4
2017-Aug-17 07:30N 38°26' E 014°58'918.6
2017-Aug-17 07:00N 38°21' E 015°08'918.6
2017-Aug-17 06:30N 38°13' E 015°14'0 0.0
2017-Aug-17 06:00N 38°13' E 015°14'1224.2
2017-Aug-17 05:30N 38°22' E 015°04'813.4
2017-Aug-17 04:54N 38°28' E 014°57'615.1
2017-Aug-17 04:29N 38°33' E 014°52'5 0.5
2017-Aug-16 18:19N 38°32' E 014°58'4 9.7
2017-Aug-16 17:54N 38°28' E 014°58'13 5.7
2017-Aug-16 15:40N 38°34' E 014°43'529.2
2017-Aug-16 15:29N 38°33' E 014°50'612.6
2017-Aug-16 14:59N 38°32' E 014°58'713.9
2017-Aug-16 14:30N 38°25' E 014°58'1121.2
2017-Aug-16 14:00N 38°20' E 015°10'815.2
2017-Aug-16 13:30N 38°13' E 015°14'0 0.4
2017-Aug-16 13:00N 38°13' E 015°15'5 9.8
2017-Aug-16 12:30N 38°18' E 015°13'1419.5
2017-Aug-16 11:47N 38°26' E 014°58'3 7.8
2017-Aug-16 11:26N 38°28' E 014°58'614.7
2017-Aug-16 11:00N 38°33' E 014°52'11 5.3
2017-Aug-16 08:54N 38°34' E 014°38'1025.1
2017-Aug-16 08:31N 38°32' E 014°51'713.6
2017-Aug-16 08:01N 38°28' E 014°58'3 6.6
2017-Aug-16 07:29N 38°25' E 014°58'1633.1
2017-Aug-16 07:01N 38°17' E 015°15'4 8.0
2017-Aug-16 06:31N 38°13' E 015°15'0 0.3
2017-Aug-16 06:01N 38°13' E 015°15'1428.3
2017-Aug-16 05:30N 38°23' E 015°02'610.9
2017-Aug-16 04:55N 38°28' E 014°58'613.0
2017-Aug-16 04:29N 38°32' E 014°53'2 4.5
2017-Aug-16 03:59N 38°33' E 014°50'0 0.0
2017-Aug-15 18:44N 38°33' E 014°50'310.5
2017-Aug-15 18:25N 38°33' E 014°54'613.7
2017-Aug-15 17:59N 38°29' E 014°59'2112.4
2017-Aug-15 16:19N 38°33' E 014°33'615.3
2017-Aug-15 15:57N 38°34' E 014°40'1118.9
2017-Aug-15 15:22N 38°33' E 014°54'513.6
2017-Aug-15 14:59N 38°28' E 014°57'612.3
2017-Aug-15 14:30N 38°23' E 015°02'1530.2
2017-Aug-15 14:00N 38°13' E 015°15'1 1.0
2017-Aug-15 13:30N 38°13' E 015°15'0 0.0
2017-Aug-15 13:00N 38°13' E 015°15'0 0.0
2017-Aug-15 12:30N 38°13' E 015°15'0 0.0
2017-Aug-15 12:00N 38°13' E 015°15'0 0.0
2017-Aug-15 11:30N 38°13' E 015°15'0 0.0
2017-Aug-15 11:00N 38°13' E 015°15'0 0.0
2017-Aug-15 10:30N 38°13' E 015°15'0 0.0
2017-Aug-15 10:00N 38°13' E 015°15'0 0.0
2017-Aug-15 09:30N 38°13' E 015°15'0 0.0
2017-Aug-15 09:00N 38°13' E 015°15'0 0.0
2017-Aug-15 08:30N 38°13' E 015°15'0 0.3
2017-Aug-15 08:00N 38°13' E 015°15'0 0.0
2017-Aug-15 07:30N 38°13' E 015°15'816.3
2017-Aug-15 07:00N 38°19' E 015°07'1734.4
2017-Aug-15 06:30N 38°18' E 014°45'3034.5
2017-Aug-15 05:38N 38°17' E 014°07'534.4
2017-Aug-15 05:30N 38°17' E 014°01'1734.5
2017-Aug-15 05:01N 38°18' E 013°40'1734.6
2017-Aug-15 04:31N 38°19' E 013°17'1733.4
2017-Aug-15 04:00N 38°16' E 012°56'2132.5
2017-Aug-15 03:21N 38°07' E 012°32'719.8
2017-Aug-15 03:00N 38°00' E 012°30'1 0.1
2017-Aug-14 16:22N 38°01' E 012°31'0 0.2
2017-Aug-14 16:00N 38°01' E 012°31'0 0.0
2017-Aug-14 15:30N 38°01' E 012°31'0 0.0
2017-Aug-14 14:59N 38°01' E 012°31'0 0.0
2017-Aug-14 14:30N 38°01' E 012°31'0 0.0
2017-Aug-14 14:00N 38°01' E 012°31'0 0.0
2017-Aug-14 13:30N 38°01' E 012°31'0 0.0
2017-Aug-14 13:00N 38°01' E 012°31'0 0.1
2017-Aug-14 12:30N 38°01' E 012°31'510.3
2017-Aug-14 12:01N 37°58' E 012°25'510.4
2017-Aug-14 11:30N 38°01' E 012°31'0 0.0
2017-Aug-14 11:00N 38°01' E 012°31'0 0.0
2017-Aug-14 10:30N 38°01' E 012°31'0 0.0
2017-Aug-14 10:00N 38°01' E 012°31'0 0.0
2017-Aug-14 09:29N 38°01' E 012°31'  
2017-Aug-11 11:45N 38°01' E 012°31'310.4
2017-Aug-11 11:30N 37°60' E 012°28'1 1.4
2017-Aug-11 11:00N 37°60' E 012°29'2 3.8
2017-Aug-11 10:30N 38°01' E 012°31'0 0.0
2017-Aug-11 10:00N 38°01' E 012°31'0 0.0
2017-Aug-11 09:30N 38°01' E 012°31'0 0.0
2017-Aug-11 09:00N 38°01' E 012°31'0 0.0
2017-Aug-11 08:30N 38°01' E 012°31'  
Track history (hours):
 
Tides and Currents Weather Stations Pressure Air Temp Water Temp Dewpoint Dewpoint Depression Visibility Wind Speed Wind Dir Waves Ship Positions

Calypso

Last reported at 2017-Aug-21 07:53 UTC. Time now 2017-Aug-21 08:23 UTC.
Position N 38°32' E 014°58'.

Length 31 m; draft 4 m.

Type: High speed craft. MMSI: 247143200.

Date/timePositionNaut miles runAvg speedWind from/ knotsBaromVisibWave heightAir tempDewpointWater temp
2017-Aug-21 07:53N 38°32' E 014°58'614.7
2017-Aug-21 07:28N 38°26' E 014°59'716.2
2017-Aug-21 07:00N 38°22' E 015°07'1021.0
2017-Aug-21 06:30N 38°13' E 015°14'0 0.4
2017-Aug-21 06:00N 38°13' E 015°15'1426.9
2017-Aug-21 05:30N 38°23' E 015°03'711.0
2017-Aug-21 04:54N 38°28' E 014°58'2 0.1
2017-Aug-20 18:02N 38°30' E 014°59'134.8
2017-Aug-20 18:01N 38°29' E 014°59'3 5.7
2017-Aug-20 17:30N 38°26' E 014°58'3 1.1
2017-Aug-20 14:32N 38°29' E 014°59'129.9
2017-Aug-20 14:30N 38°28' E 014°59'4 6.3
2017-Aug-20 13:48N 38°24' E 015°01'1034.4
2017-Aug-20 13:30N 38°19' E 015°11'612.3
2017-Aug-20 13:01N 38°13' E 015°14'0 0.4
2017-Aug-20 12:30N 38°13' E 015°15'3 6.8
2017-Aug-20 12:01N 38°16' E 015°16'1625.3
2017-Aug-20 11:22N 38°25' E 014°58'3 9.0
2017-Aug-20 10:59N 38°28' E 014°58'813.8
2017-Aug-20 10:24N 38°33' E 014°50'1 0.6
2017-Aug-20 08:26N 38°33' E 014°48'4 8.4
2017-Aug-20 07:56N 38°33' E 014°54'714.3
2017-Aug-20 07:27N 38°27' E 014°59'716.1
2017-Aug-20 07:01N 38°23' E 015°05'1223.7
2017-Aug-20 06:30N 38°13' E 015°14'0 0.1
2017-Aug-20 06:01N 38°13' E 015°15'1325.6
2017-Aug-20 05:31N 38°23' E 015°04'712.3
2017-Aug-20 04:55N 38°28' E 014°58'8 8.2
2017-Aug-20 03:58N 38°33' E 014°50'0 0.0
2017-Aug-19 18:50N 38°33' E 014°50'310.3
2017-Aug-19 18:30N 38°33' E 014°54'611.3
2017-Aug-19 17:58N 38°27' E 014°55'7 3.1
2017-Aug-19 15:39N 38°33' E 014°50'410.8
2017-Aug-19 15:18N 38°33' E 014°54'613.4
2017-Aug-19 14:52N 38°28' E 014°58'1922.9
2017-Aug-19 14:01N 38°15' E 015°17'3 5.1
2017-Aug-19 13:30N 38°13' E 015°15'0 0.0
2017-Aug-19 13:00N 38°13' E 015°15'0 0.4
2017-Aug-19 12:30N 38°13' E 015°14'1020.3
2017-Aug-19 12:01N 38°21' E 015°06'1020.1
2017-Aug-19 11:30N 38°28' E 014°58'6 8.2
2017-Aug-19 10:48N 38°33' E 014°53'619.5
2017-Aug-19 10:30N 38°34' E 014°45'5 2.8
2017-Aug-19 08:51N 38°34' E 014°39'823.6
2017-Aug-19 08:31N 38°33' E 014°50'816.3
2017-Aug-19 08:00N 38°28' E 014°59'4 6.6
2017-Aug-19 07:26N 38°25' E 014°59'1434.4
2017-Aug-19 07:01N 38°18' E 015°15'4 8.9
2017-Aug-19 06:30N 38°13' E 015°15'0 0.1
2017-Aug-19 06:01N 38°13' E 015°15'1224.8
2017-Aug-19 05:30N 38°22' E 015°04'815.5
2017-Aug-19 05:00N 38°28' E 014°57'610.1
2017-Aug-19 04:26N 38°32' E 014°52'2 0.2
2017-Aug-18 18:46N 38°33' E 014°50'3 8.4
2017-Aug-18 18:25N 38°33' E 014°53'6 6.7
2017-Aug-18 17:30N 38°29' E 014°59'1122.9
2017-Aug-18 17:00N 38°33' E 014°46'1121.0
2017-Aug-18 16:30N 38°35' E 014°32'1 2.3
2017-Aug-18 15:53N 38°35' E 014°30'512.9
2017-Aug-18 15:30N 38°34' E 014°37'1224.7
2017-Aug-18 14:59N 38°32' E 014°52'8 8.1
2017-Aug-18 13:56N 38°25' E 014°58'1534.3
2017-Aug-18 13:30N 38°17' E 015°15'4 8.6
2017-Aug-18 13:00N 38°13' E 015°15'0 0.0
2017-Aug-18 12:30N 38°13' E 015°15'5 9.1
2017-Aug-18 12:01N 38°18' E 015°14'1424.6
2017-Aug-18 11:25N 38°25' E 014°58'410.5
2017-Aug-18 11:00N 38°29' E 014°59'816.1
2017-Aug-18 10:30N 38°33' E 014°50'10 5.6
2017-Aug-18 08:47N 38°35' E 014°38'1034.6
2017-Aug-18 08:31N 38°33' E 014°50'510.7
2017-Aug-18 08:00N 38°32' E 014°56'711.0
2017-Aug-18 07:20N 38°25' E 014°58'1134.2
2017-Aug-18 07:01N 38°20' E 015°11'714.4
2017-Aug-18 06:30N 38°13' E 015°14'0 0.0
2017-Aug-18 06:00N 38°13' E 015°15'1224.2
2017-Aug-18 05:30N 38°22' E 015°04'812.8
2017-Aug-18 04:54N 38°29' E 014°59'715.9
2017-Aug-18 04:29N 38°33' E 014°53'2 0.2
2017-Aug-17 18:57N 38°33' E 014°50'816.1
2017-Aug-17 18:29N 38°30' E 014°59'711.1
2017-Aug-17 17:54N 38°32' E 014°51'820.6
2017-Aug-17 17:30N 38°34' E 014°40'5 3.0
2017-Aug-17 15:54N 38°33' E 014°46'611.3
2017-Aug-17 15:24N 38°33' E 014°54'612.9
2017-Aug-17 14:58N 38°28' E 014°57'4 8.5
2017-Aug-17 14:30N 38°25' E 014°59'1633.0
2017-Aug-17 14:00N 38°15' E 015°16'2 4.7
2017-Aug-17 13:30N 38°13' E 015°15'0 0.4
2017-Aug-17 13:00N 38°13' E 015°15'1428.7
2017-Aug-17 12:30N 38°23' E 015°02'5 9.4
2017-Aug-17 12:00N 38°27' E 014°58'8 9.8
2017-Aug-17 11:13N 38°33' E 014°53'413.3
2017-Aug-17 10:54N 38°33' E 014°47'1018.7
2017-Aug-17 10:22N 38°35' E 014°35'5 4.0
2017-Aug-17 09:15N 38°34' E 014°40'832.1
2017-Aug-17 09:01N 38°33' E 014°50'612.0
2017-Aug-17 08:30N 38°32' E 014°58'3 5.8
2017-Aug-17 07:58N 38°29' E 014°57'2 5.4
2017-Aug-17 07:30N 38°26' E 014°58'918.6
2017-Aug-17 07:00N 38°21' E 015°08'918.6
2017-Aug-17 06:30N 38°13' E 015°14'0 0.0
2017-Aug-17 06:00N 38°13' E 015°14'1224.2
2017-Aug-17 05:30N 38°22' E 015°04'813.4
2017-Aug-17 04:54N 38°28' E 014°57'615.1
2017-Aug-17 04:29N 38°33' E 014°52'5 0.5
2017-Aug-16 18:19N 38°32' E 014°58'4 9.7
2017-Aug-16 17:54N 38°28' E 014°58'13 5.7
2017-Aug-16 15:40N 38°34' E 014°43'529.2
2017-Aug-16 15:29N 38°33' E 014°50'612.6
2017-Aug-16 14:59N 38°32' E 014°58'713.9
2017-Aug-16 14:30N 38°25' E 014°58'1121.2
2017-Aug-16 14:00N 38°20' E 015°10'815.2
2017-Aug-16 13:30N 38°13' E 015°14'0 0.4
2017-Aug-16 13:00N 38°13' E 015°15'5 9.8
2017-Aug-16 12:30N 38°18' E 015°13'1419.5
2017-Aug-16 11:47N 38°26' E 014°58'3 7.8
2017-Aug-16 11:26N 38°28' E 014°58'614.7
2017-Aug-16 11:00N 38°33' E 014°52'11 5.3
2017-Aug-16 08:54N 38°34' E 014°38'1025.1
2017-Aug-16 08:31N 38°32' E 014°51'713.6
2017-Aug-16 08:01N 38°28' E 014°58'3 6.6
2017-Aug-16 07:29N 38°25' E 014°58'1633.1
2017-Aug-16 07:01N 38°17' E 015°15'4 8.0
2017-Aug-16 06:31N 38°13' E 015°15'0 0.3
2017-Aug-16 06:01N 38°13' E 015°15'1428.3
2017-Aug-16 05:30N 38°23' E 015°02'610.9
2017-Aug-16 04:55N 38°28' E 014°58'613.0
2017-Aug-16 04:29N 38°32' E 014°53'2 4.5
2017-Aug-16 03:59N 38°33' E 014°50'0 0.0
2017-Aug-15 18:44N 38°33' E 014°50'310.5
2017-Aug-15 18:25N 38°33' E 014°54'613.7
2017-Aug-15 17:59N 38°29' E 014°59'2112.4
2017-Aug-15 16:19N 38°33' E 014°33'615.3
2017-Aug-15 15:57N 38°34' E 014°40'1118.9
2017-Aug-15 15:22N 38°33' E 014°54'513.6
2017-Aug-15 14:59N 38°28' E 014°57'612.3
2017-Aug-15 14:30N 38°23' E 015°02'1530.2
2017-Aug-15 14:00N 38°13' E 015°15'1 1.0
2017-Aug-15 13:30N 38°13' E 015°15'0 0.0
2017-Aug-15 13:00N 38°13' E 015°15'0 0.0
2017-Aug-15 12:30N 38°13' E 015°15'0 0.0
2017-Aug-15 12:00N 38°13' E 015°15'0 0.0
2017-Aug-15 11:30N 38°13' E 015°15'0 0.0
2017-Aug-15 11:00N 38°13' E 015°15'0 0.0
2017-Aug-15 10:30N 38°13' E 015°15'0 0.0
2017-Aug-15 10:00N 38°13' E 015°15'0 0.0
2017-Aug-15 09:30N 38°13' E 015°15'0 0.0
2017-Aug-15 09:00N 38°13' E 015°15'0 0.0
2017-Aug-15 08:30N 38°13' E 015°15'0 0.3
2017-Aug-15 08:00N 38°13' E 015°15'0 0.0
2017-Aug-15 07:30N 38°13' E 015°15'816.3
2017-Aug-15 07:00N 38°19' E 015°07'1734.4
2017-Aug-15 06:30N 38°18' E 014°45'3034.5
2017-Aug-15 05:38N 38°17' E 014°07'534.4
2017-Aug-15 05:30N 38°17' E 014°01'1734.5
2017-Aug-15 05:01N 38°18' E 013°40'1734.6
2017-Aug-15 04:31N 38°19' E 013°17'1733.4
2017-Aug-15 04:00N 38°16' E 012°56'2132.5
2017-Aug-15 03:21N 38°07' E 012°32'719.8
2017-Aug-15 03:00N 38°00' E 012°30'1 0.1
2017-Aug-14 16:22N 38°01' E 012°31'0 0.2
2017-Aug-14 16:00N 38°01' E 012°31'0 0.0
2017-Aug-14 15:30N 38°01' E 012°31'0 0.0
2017-Aug-14 14:59N 38°01' E 012°31'0 0.0
2017-Aug-14 14:30N 38°01' E 012°31'0 0.0
2017-Aug-14 14:00N 38°01' E 012°31'0 0.0
2017-Aug-14 13:30N 38°01' E 012°31'0 0.0
2017-Aug-14 13:00N 38°01' E 012°31'0 0.1
2017-Aug-14 12:30N 38°01' E 012°31'510.3
2017-Aug-14 12:01N 37°58' E 012°25'510.4
2017-Aug-14 11:30N 38°01' E 012°31'0 0.0
2017-Aug-14 11:00N 38°01' E 012°31'0 0.0
2017-Aug-14 10:30N 38°01' E 012°31'0 0.0
2017-Aug-14 10:00N 38°01' E 012°31'0 0.0
2017-Aug-14 09:29N 38°01' E 012°31'  
2017-Aug-11 11:45N 38°01' E 012°31'310.4
2017-Aug-11 11:30N 37°60' E 012°28'1 1.4
2017-Aug-11 11:00N 37°60' E 012°29'2 3.8
2017-Aug-11 10:30N 38°01' E 012°31'0 0.0
2017-Aug-11 10:00N 38°01' E 012°31'0 0.0
2017-Aug-11 09:30N 38°01' E 012°31'0 0.0
2017-Aug-11 09:00N 38°01' E 012°31'0 0.0
2017-Aug-11 08:30N 38°01' E 012°31'  

Dump ship's entire track history